createdAt,value
2022-11-25T00:01:33.019Z,8.71
2022-11-25T00:04:01.109Z,8.74
2022-11-25T00:06:34.862Z,8.75
2022-11-25T00:09:06.049Z,8.84
2022-11-25T00:11:39.040Z,8.81
2022-11-25T00:14:08.497Z,8.81
2022-11-25T00:16:36.281Z,8.83
2022-11-25T00:19:04.481Z,8.83
2022-11-25T00:21:34.372Z,8.87
2022-11-25T00:24:05.631Z,8.91
2022-11-25T00:26:35.637Z,8.92
2022-11-25T00:29:07.520Z,8.97
2022-11-25T00:31:38.759Z,8.91
2022-11-25T00:34:09.203Z,8.85
2022-11-25T00:36:38.500Z,8.78
2022-11-25T00:39:10.966Z,8.77
2022-11-25T00:41:57.648Z,8.70
2022-11-25T00:44:40.853Z,8.60
2022-11-25T00:47:11.669Z,8.56
2022-11-25T00:49:41.437Z,8.54
2022-11-25T00:52:12.596Z,8.46
2022-11-25T00:54:40.502Z,8.43
2022-11-25T00:57:08.479Z,8.42
2022-11-25T00:59:36.367Z,8.39
2022-11-25T01:02:04.290Z,8.32
2022-11-25T01:04:32.209Z,8.28
2022-11-25T01:07:00.782Z,8.29
2022-11-25T01:09:29.555Z,8.21
2022-11-25T01:11:57.412Z,8.18
2022-11-25T01:14:27.235Z,8.16
2022-11-25T01:16:55.248Z,8.11
2022-11-25T01:19:24.274Z,8.15
2022-11-25T01:21:52.395Z,8.12
2022-11-25T01:24:20.270Z,8.13
2022-11-25T01:26:48.369Z,8.08
2022-11-25T01:29:18.382Z,8.09
2022-11-25T01:31:46.935Z,8.11
2022-11-25T01:34:18.707Z,8.09
2022-11-25T01:36:46.952Z,8.12
2022-11-25T01:39:20.446Z,8.06
2022-11-25T01:41:48.840Z,8.11
2022-11-25T01:44:19.836Z,8.09
2022-11-25T01:47:02.252Z,8.11
2022-11-25T01:49:48.477Z,8.06
2022-11-25T01:52:27.644Z,8.12
2022-11-25T01:55:09.092Z,8.09
2022-11-25T01:57:43.312Z,8.08
2022-11-25T02:00:12.246Z,8.09
2022-11-25T02:02:48.502Z,8.09
2022-11-25T02:05:34.068Z,8.08
2022-11-25T02:08:02.441Z,8.12
2022-11-25T02:10:32.460Z,8.11
2022-11-25T02:13:00.506Z,8.13
2022-11-25T02:15:31.041Z,8.12
2022-11-25T02:17:58.946Z,8.15
2022-11-25T02:20:27.187Z,8.13
2022-11-25T02:23:15.008Z,8.16
2022-11-25T02:25:46.714Z,8.18
2022-11-25T02:28:26.522Z,8.18
2022-11-25T02:30:54.950Z,8.22
2022-11-25T02:33:24.711Z,8.24
2022-11-25T02:36:01.686Z,8.21
2022-11-25T02:38:48.955Z,8.26
2022-11-25T02:41:20.826Z,8.28
2022-11-25T02:43:55.151Z,8.29
2022-11-25T02:46:25.737Z,8.26
2022-11-25T02:49:11.201Z,8.26
2022-11-25T02:51:44.726Z,8.26
2022-11-25T02:54:16.340Z,8.26
2022-11-25T02:56:44.576Z,8.25
2022-11-25T02:59:12.544Z,8.25
2022-11-25T03:01:40.920Z,8.26
2022-11-25T03:04:10.829Z,8.24
2022-11-25T03:06:38.893Z,8.25
2022-11-25T03:09:08.209Z,8.24
2022-11-25T03:11:57.826Z,8.25
2022-11-25T03:14:26.069Z,8.19
2022-11-25T03:16:53.901Z,8.21
2022-11-25T03:19:21.839Z,8.19
2022-11-25T03:21:49.638Z,8.18
2022-11-25T03:24:17.396Z,8.19
2022-11-25T03:26:48.681Z,8.19
2022-11-25T03:29:16.708Z,8.19
2022-11-25T03:31:44.798Z,8.25
2022-11-25T03:34:13.100Z,8.25
2022-11-25T03:36:41.879Z,8.24
2022-11-25T03:39:10.510Z,8.25
2022-11-25T03:41:38.931Z,8.24
2022-11-25T03:44:06.745Z,8.25
2022-11-25T03:46:35.157Z,8.24
2022-11-25T03:49:05.444Z,8.26
2022-11-25T03:51:33.521Z,8.29
2022-11-25T03:54:01.396Z,8.30
2022-11-25T03:56:31.144Z,8.32
2022-11-25T03:58:58.961Z,8.32
2022-11-25T04:01:26.975Z,8.32
2022-11-25T04:03:55.003Z,8.35
2022-11-25T04:06:23.931Z,8.32
2022-11-25T04:08:54.200Z,8.42
2022-11-25T04:11:42.661Z,8.32
2022-11-25T04:14:11.867Z,8.36
2022-11-25T04:16:39.817Z,8.32
2022-11-25T04:19:07.698Z,8.28
2022-11-25T04:21:36.199Z,8.26
2022-11-25T04:24:04.354Z,8.28
2022-11-25T04:26:32.305Z,8.25
2022-11-25T04:29:00.261Z,8.25
2022-11-25T04:31:29.387Z,8.22
2022-11-25T04:33:57.238Z,8.22
2022-11-25T04:36:25.249Z,8.25
2022-11-25T04:38:53.526Z,8.25
2022-11-25T04:41:23.504Z,8.24
2022-11-25T04:43:51.365Z,8.22
2022-11-25T04:46:24.915Z,8.22
2022-11-25T04:48:52.876Z,8.26
2022-11-25T04:51:21.935Z,8.25
2022-11-25T04:53:53.654Z,8.29
2022-11-25T04:56:23.973Z,8.28
2022-11-25T04:59:13.097Z,8.26
2022-11-25T05:01:45.179Z,8.25
2022-11-25T05:04:33.514Z,8.26
2022-11-25T05:07:01.479Z,8.22
2022-11-25T05:09:29.898Z,8.21
2022-11-25T05:12:21.101Z,8.21
2022-11-25T05:14:49.859Z,8.21
2022-11-25T05:17:20.797Z,8.22
2022-11-25T05:19:49.256Z,8.28
2022-11-25T05:22:20.921Z,8.28
2022-11-25T05:24:49.117Z,8.25
2022-11-25T05:27:17.945Z,8.25
2022-11-25T05:29:47.414Z,8.24
2022-11-25T05:32:18.428Z,8.24
2022-11-25T05:34:46.249Z,8.19
2022-11-25T05:37:17.740Z,8.21
2022-11-25T05:39:54.495Z,8.25
2022-11-25T05:42:40.180Z,8.21
2022-11-25T05:45:11.228Z,8.21
2022-11-25T05:47:40.487Z,8.19
2022-11-25T05:50:10.747Z,8.16
2022-11-25T05:52:38.684Z,8.16
2022-11-25T05:55:07.337Z,8.19
2022-11-25T05:57:35.273Z,8.29
2022-11-25T06:00:12.973Z,8.35
2022-11-25T06:02:49.670Z,8.42
2022-11-25T06:05:17.706Z,8.47
2022-11-25T06:07:45.863Z,8.42
2022-11-25T06:10:14.148Z,8.40
2022-11-25T06:12:42.810Z,8.36
2022-11-25T06:15:11.641Z,8.30
2022-11-25T06:17:40.550Z,8.30
2022-11-25T06:20:20.001Z,8.25
2022-11-25T06:22:47.875Z,8.25
2022-11-25T06:25:20.910Z,8.19
2022-11-25T06:28:11.990Z,8.16
2022-11-25T06:30:38.357Z,8.12
2022-11-25T06:33:16.900Z,8.16
2022-11-25T06:35:47.242Z,8.21
2022-11-25T06:38:15.399Z,8.13
2022-11-25T06:40:43.598Z,8.09
2022-11-25T06:43:11.560Z,8.08
2022-11-25T06:45:39.493Z,8.09
2022-11-25T06:48:07.406Z,8.08
2022-11-25T06:50:35.193Z,8.11
2022-11-25T06:53:03.125Z,8.12
2022-11-25T06:55:31.045Z,8.08
2022-11-25T06:58:13.825Z,8.06
2022-11-25T07:00:46.770Z,8.01
2022-11-25T07:03:14.628Z,8.02
2022-11-25T07:05:42.664Z,8.01
2022-11-25T07:08:10.393Z,7.98
2022-11-25T07:10:38.269Z,7.88
2022-11-25T07:13:06.074Z,7.90
2022-11-25T07:15:37.484Z,7.83
2022-11-25T07:18:05.346Z,7.80
2022-11-25T07:20:33.437Z,7.77
2022-11-25T07:23:01.248Z,7.73
2022-11-25T07:25:30.882Z,7.71
2022-11-25T07:27:59.809Z,7.70
2022-11-25T07:33:15.551Z,7.73
2022-11-25T07:35:43.360Z,7.78
2022-11-25T07:38:11.120Z,7.81
2022-11-25T07:40:39.034Z,7.84
2022-11-25T07:43:06.778Z,7.85
2022-11-25T07:45:34.674Z,7.85
2022-11-25T07:48:11.423Z,7.88
2022-11-25T07:50:39.237Z,7.91
2022-11-25T07:53:07.165Z,7.92
2022-11-25T07:55:37.918Z,7.99
2022-11-25T07:58:05.677Z,8.02
2022-11-25T08:00:33.481Z,8.04
2022-11-25T08:03:01.336Z,8.06
2022-11-25T08:05:29.169Z,8.08
2022-11-25T08:07:57.317Z,8.08
2022-11-25T08:10:25.332Z,8.08
2022-11-25T08:12:53.096Z,8.08
2022-11-25T08:15:20.862Z,8.11
2022-11-25T08:17:52.337Z,8.12
2022-11-25T08:20:20.175Z,8.15
2022-11-25T08:22:48.211Z,8.19
2022-11-25T08:25:16.148Z,8.25
2022-11-25T08:27:44.767Z,8.29
2022-11-25T08:30:12.880Z,8.30
2022-11-25T08:32:40.749Z,8.36
2022-11-25T08:35:08.990Z,8.33
2022-11-25T08:37:36.932Z,8.36
2022-11-25T08:40:05.458Z,8.42
2022-11-25T08:42:33.770Z,8.39
2022-11-25T08:45:01.816Z,8.38
2022-11-25T08:47:29.634Z,8.42
2022-11-25T08:49:57.852Z,8.43
2022-11-25T08:52:26.600Z,8.45
2022-11-25T08:54:54.397Z,8.46
2022-11-25T08:57:22.436Z,8.49
2022-11-25T08:59:50.203Z,8.53
2022-11-25T09:02:18.703Z,8.56
2022-11-25T09:04:46.683Z,8.59
2022-11-25T09:07:14.753Z,8.57
2022-11-25T09:09:42.821Z,8.66
2022-11-25T09:12:10.774Z,8.71
2022-11-25T09:14:40.522Z,8.74
2022-11-25T09:17:13.259Z,8.78
2022-11-25T09:19:41.327Z,8.83
2022-11-25T09:22:09.468Z,8.85
2022-11-25T09:24:37.425Z,8.85
2022-11-25T09:27:05.365Z,8.91
2022-11-25T09:29:33.221Z,8.98
2022-11-25T09:32:01.346Z,9.02
2022-11-25T09:34:29.390Z,9.04
2022-11-25T09:36:57.383Z,9.04
2022-11-25T09:39:29.612Z,9.11
2022-11-25T09:42:25.200Z,9.15
2022-11-25T09:45:42.525Z,9.22
2022-11-25T09:48:24.909Z,9.25
2022-11-25T09:51:02.833Z,9.23
2022-11-25T09:53:39.740Z,9.26
2022-11-25T09:56:35.543Z,9.29
2022-11-25T09:59:07.916Z,9.33
2022-11-25T10:01:45.697Z,9.36
2022-11-25T10:04:33.287Z,9.43
2022-11-25T10:07:04.319Z,9.49
2022-11-25T10:09:35.935Z,9.49
2022-11-25T10:12:04.072Z,9.57
2022-11-25T10:14:48.645Z,9.54
2022-11-25T10:17:35.191Z,9.61
2022-11-25T10:20:12.545Z,9.67
2022-11-25T10:22:45.912Z,9.67
2022-11-25T10:25:18.332Z,9.67
2022-11-25T10:28:00.170Z,9.70
2022-11-25T10:30:38.679Z,9.74
2022-11-25T10:33:32.390Z,9.80
2022-11-25T10:36:06.670Z,9.83
2022-11-25T10:38:44.236Z,9.88
2022-11-25T10:41:20.977Z,9.85
2022-11-25T10:43:49.472Z,9.87
2022-11-25T10:47:11.539Z,9.94
2022-11-25T10:49:30.977Z,9.94
2022-11-25T10:51:58.977Z,10.01
2022-11-25T10:54:28.866Z,10.02
2022-11-25T10:57:00.129Z,10.04
2022-11-25T10:59:36.799Z,10.04
2022-11-25T11:02:14.438Z,10.06
2022-11-25T11:04:53.713Z,10.12
2022-11-25T11:07:22.355Z,10.13
2022-11-25T11:09:50.693Z,10.19
2022-11-25T11:12:25.218Z,10.19
2022-11-25T11:15:18.696Z,10.25
2022-11-25T11:17:46.778Z,10.30
2022-11-25T11:20:17.728Z,10.35
2022-11-25T11:23:10.302Z,10.39
2022-11-25T11:25:41.545Z,10.43
2022-11-25T11:28:28.296Z,10.45
2022-11-25T11:31:00.733Z,10.46
2022-11-25T11:33:47.541Z,10.53
2022-11-25T11:36:37.505Z,10.53
2022-11-25T11:39:26.678Z,10.49
2022-11-25T11:42:22.858Z,10.57
2022-11-25T11:44:57.298Z,10.64
2022-11-25T11:47:41.330Z,10.74
2022-11-25T11:50:49.348Z,10.78
2022-11-25T11:53:41.422Z,10.75
2022-11-25T11:56:35.403Z,10.77
2022-11-25T11:59:23.867Z,10.67
2022-11-25T12:02:16.221Z,10.66
2022-11-25T12:04:53.338Z,10.61
2022-11-25T12:07:41.785Z,10.59
2022-11-25T12:10:15.391Z,10.60
2022-11-25T12:12:53.310Z,10.64
2022-11-25T12:15:44.615Z,10.68
2022-11-25T12:18:35.494Z,10.73
2022-11-25T12:21:16.881Z,10.74
2022-11-25T12:23:50.402Z,10.77
2022-11-25T12:27:00.805Z,10.77
2022-11-25T12:29:46.755Z,10.80
2022-11-25T12:32:23.427Z,10.81
2022-11-25T12:35:07.382Z,10.77
2022-11-25T12:37:58.028Z,10.77
2022-11-25T12:40:45.496Z,10.78
2022-11-25T12:43:34.675Z,10.85
2022-11-25T12:46:25.716Z,10.94
2022-11-25T12:48:55.165Z,10.98
2022-11-25T12:51:46.299Z,11.00
2022-11-25T12:54:23.582Z,11.07
2022-11-25T12:57:03.546Z,11.11
2022-11-25T13:00:25.152Z,11.08
2022-11-25T13:02:52.077Z,10.98
2022-11-25T13:05:40.465Z,10.97
2022-11-25T13:08:29.532Z,10.98
2022-11-25T13:11:19.545Z,11.00
2022-11-25T13:13:59.930Z,11.00
2022-11-25T13:16:29.592Z,10.95
2022-11-25T13:18:58.613Z,10.97
2022-11-25T13:21:28.463Z,11.00
2022-11-25T13:23:58.984Z,11.12
2022-11-25T13:26:29.840Z,11.16
2022-11-25T13:28:58.968Z,11.14
2022-11-25T13:31:33.941Z,11.12
2022-11-25T13:34:20.077Z,11.14
2022-11-25T13:36:52.556Z,11.16
2022-11-25T13:39:34.238Z,11.16
2022-11-25T13:42:26.074Z,11.28
2022-11-25T13:44:59.142Z,11.30
2022-11-25T13:47:35.466Z,11.28
2022-11-25T13:50:21.837Z,11.25
2022-11-25T13:52:59.447Z,11.29
2022-11-25T13:55:34.276Z,11.35
2022-11-25T13:58:11.310Z,11.35
2022-11-25T14:00:49.980Z,11.29
2022-11-25T14:03:20.729Z,11.23
2022-11-25T14:06:27.488Z,11.14
2022-11-25T14:09:04.234Z,11.05
2022-11-25T14:11:59.361Z,11.08
2022-11-25T14:14:49.770Z,11.10
2022-11-25T14:17:55.388Z,11.14
2022-11-25T14:20:32.669Z,11.29
2022-11-25T14:23:41.818Z,11.36
2022-11-25T14:29:52.863Z,11.40
2022-11-25T14:32:30.233Z,11.30
2022-11-25T14:35:45.516Z,11.21
2022-11-25T14:38:23.581Z,11.08
2022-11-25T14:41:06.349Z,11.04
2022-11-25T14:43:43.464Z,10.98
2022-11-25T14:46:23.214Z,11.01
2022-11-25T14:48:56.755Z,11.12
2022-11-25T14:51:44.438Z,11.21
2022-11-25T14:54:12.783Z,11.21
2022-11-25T14:56:42.195Z,11.15
2022-11-25T14:59:13.460Z,11.14
2022-11-25T15:01:54.294Z,11.00
2022-11-25T15:04:26.499Z,10.90
2022-11-25T15:07:00.847Z,10.87
2022-11-25T15:09:30.712Z,10.77
2022-11-25T15:12:06.597Z,10.68
2022-11-25T15:14:44.149Z,10.60
2022-11-25T15:17:31.845Z,10.57
2022-11-25T15:20:17.655Z,10.55
2022-11-25T15:22:52.502Z,10.46
2022-11-25T15:25:20.671Z,10.45
2022-11-25T15:27:53.767Z,10.40
2022-11-25T15:30:24.553Z,10.33
2022-11-25T15:32:54.267Z,10.30
2022-11-25T15:35:26.262Z,10.28
2022-11-25T15:37:55.132Z,10.22
2022-11-25T15:40:40.915Z,10.16
2022-11-25T15:43:25.767Z,10.05
2022-11-25T15:46:00.363Z,10.01
2022-11-25T15:48:37.738Z,9.94
2022-11-25T15:51:17.743Z,9.90
2022-11-25T15:53:47.126Z,9.81
2022-11-25T15:56:22.505Z,9.80
2022-11-25T15:58:50.781Z,9.71
2022-11-25T16:01:23.486Z,9.70
2022-11-25T16:03:52.723Z,9.63
2022-11-25T16:06:24.417Z,9.56
2022-11-25T16:08:56.379Z,9.47
2022-11-25T16:11:25.642Z,9.44
2022-11-25T16:13:54.149Z,9.35
2022-11-25T16:16:27.768Z,9.33
2022-11-25T16:19:10.029Z,9.26
2022-11-25T16:21:42.656Z,9.18
2022-11-25T16:24:38.529Z,9.11
2022-11-25T16:27:20.592Z,9.01
2022-11-25T16:30:05.349Z,8.95
2022-11-25T16:32:34.137Z,8.94
2022-11-25T16:35:19.275Z,8.89
2022-11-25T16:37:49.443Z,8.88
2022-11-25T16:40:18.962Z,8.83
2022-11-25T16:42:49.539Z,8.78
2022-11-25T16:45:36.189Z,8.80
2022-11-25T16:48:17.220Z,8.75
2022-11-25T16:50:45.627Z,8.68
2022-11-25T16:53:13.893Z,8.61
2022-11-25T16:55:44.442Z,8.50
2022-11-25T16:58:22.630Z,8.46
2022-11-25T17:00:54.245Z,8.42
2022-11-25T17:03:25.298Z,8.32
2022-11-25T17:05:55.192Z,8.24
2022-11-25T17:08:23.118Z,8.21
2022-11-25T17:10:53.318Z,8.16
2022-11-25T17:13:23.396Z,8.18
2022-11-25T17:15:51.575Z,8.18
2022-11-25T17:18:19.563Z,8.13
2022-11-25T17:20:47.600Z,8.06
2022-11-25T17:23:17.021Z,8.01
2022-11-25T17:25:48.665Z,7.98
2022-11-25T17:28:18.838Z,8.02
2022-11-25T17:30:48.786Z,7.98
2022-11-25T17:33:19.604Z,7.90
2022-11-25T17:35:47.713Z,7.85
2022-11-25T17:38:21.033Z,7.77
2022-11-25T17:40:50.502Z,7.74
2022-11-25T17:43:20.408Z,7.70
2022-11-25T17:45:48.427Z,7.64
2022-11-25T17:48:17.816Z,7.64
2022-11-25T17:50:47.367Z,7.59
2022-11-25T17:53:15.225Z,7.49
2022-11-25T17:55:43.069Z,7.40
2022-11-25T17:58:14.786Z,7.36
2022-11-25T18:00:43.640Z,7.39
2022-11-25T18:03:16.625Z,7.38
2022-11-25T18:05:46.051Z,7.42
2022-11-25T18:08:14.074Z,7.42
2022-11-25T18:10:43.959Z,7.45
2022-11-25T18:13:11.906Z,7.60
2022-11-25T18:15:40.781Z,7.62
2022-11-25T18:18:24.502Z,7.62
2022-11-25T18:20:52.994Z,7.57
2022-11-25T18:23:21.003Z,7.50
2022-11-25T18:25:49.108Z,7.45
2022-11-25T18:28:20.635Z,7.33
2022-11-25T18:30:49.931Z,7.25
2022-11-25T18:33:19.104Z,7.21
2022-11-25T18:35:47.538Z,7.16
2022-11-25T18:38:15.586Z,7.16
2022-11-25T18:40:50.256Z,7.15
2022-11-25T18:43:24.680Z,7.16
2022-11-25T18:45:54.336Z,7.21
2022-11-25T18:48:24.735Z,7.30
2022-11-25T18:50:55.960Z,7.35
2022-11-25T18:53:24.394Z,7.43
2022-11-25T18:55:52.554Z,7.42
2022-11-25T18:58:25.116Z,7.43
2022-11-25T19:00:54.666Z,7.47
2022-11-25T19:03:25.257Z,7.39
2022-11-25T19:05:59.287Z,7.33
2022-11-25T19:08:27.312Z,7.35
2022-11-25T19:10:55.405Z,7.30
2022-11-25T19:13:34.111Z,7.29
2022-11-25T19:16:13.680Z,7.30
2022-11-25T19:18:45.705Z,7.22
2022-11-25T19:21:17.198Z,7.22
2022-11-25T19:23:45.935Z,7.23
2022-11-25T19:26:38.815Z,7.19
2022-11-25T19:29:11.983Z,7.19
2022-11-25T19:31:40.147Z,7.12
2022-11-25T19:34:10.610Z,7.00
2022-11-25T19:36:38.704Z,6.85
2022-11-25T19:39:16.890Z,6.79
2022-11-25T19:41:45.258Z,6.72
2022-11-25T19:44:14.436Z,6.69
2022-11-25T19:47:13.765Z,6.63
2022-11-25T19:49:36.704Z,6.54
2022-11-25T19:52:05.098Z,6.50
2022-11-25T19:54:33.104Z,6.47
2022-11-25T19:57:01.041Z,6.43
2022-11-25T19:59:29.019Z,6.46
2022-11-25T20:01:57.045Z,6.39
2022-11-25T20:04:25.041Z,6.35
2022-11-25T20:06:52.960Z,6.28
2022-11-25T20:09:20.830Z,6.26
2022-11-25T20:11:54.223Z,6.26
2022-11-25T20:14:22.278Z,6.24
2022-11-25T20:16:50.156Z,6.17
2022-11-25T20:19:19.197Z,6.17
2022-11-25T20:21:48.638Z,6.22
2022-11-25T20:24:19.769Z,6.21
2022-11-25T20:26:48.888Z,6.24
2022-11-25T20:29:20.309Z,6.24
2022-11-25T20:31:49.474Z,6.24
2022-11-25T20:34:17.668Z,6.12
2022-11-25T20:36:45.971Z,6.11
2022-11-25T20:39:19.321Z,6.08
2022-11-25T20:41:52.588Z,6.11
2022-11-25T20:44:21.478Z,6.10
2022-11-25T20:46:49.871Z,6.14
2022-11-25T20:49:25.583Z,6.10
2022-11-25T20:51:53.875Z,6.15
2022-11-25T20:54:24.619Z,6.15
2022-11-25T20:56:53.127Z,6.14
2022-11-25T20:59:25.260Z,6.14
2022-11-25T21:01:54.735Z,6.11
2022-11-25T21:04:23.206Z,6.12
2022-11-25T21:06:51.348Z,6.12
2022-11-25T21:09:23.669Z,6.07
2022-11-25T21:11:51.736Z,6.08
2022-11-25T21:14:20.587Z,6.01
2022-11-25T21:16:48.927Z,5.95
2022-11-25T21:19:17.629Z,5.98
2022-11-25T21:21:47.956Z,6.00
2022-11-25T21:24:32.966Z,5.95
2022-11-25T21:27:13.984Z,5.93
2022-11-25T21:29:45.100Z,5.95
2022-11-25T21:32:19.804Z,6.05
2022-11-25T21:34:47.998Z,6.07
2022-11-25T21:37:17.888Z,6.07
2022-11-25T21:39:46.097Z,6.01
2022-11-25T21:42:23.828Z,6.00
2022-11-25T21:44:53.520Z,6.04
2022-11-25T21:47:28.559Z,6.01
2022-11-25T21:49:56.774Z,6.00
2022-11-25T21:52:24.772Z,5.95
2022-11-25T21:54:52.739Z,6.01
2022-11-25T21:57:26.065Z,6.00
2022-11-25T21:59:55.223Z,6.02
2022-11-25T22:02:24.826Z,6.04
2022-11-25T22:04:53.066Z,6.02
2022-11-25T22:07:21.852Z,6.04
2022-11-25T22:09:52.065Z,6.02
2022-11-25T22:12:30.772Z,6.00
2022-11-25T22:15:00.632Z,6.00
2022-11-25T22:17:30.044Z,5.97
2022-11-25T22:19:58.315Z,5.98
2022-11-25T22:22:27.556Z,5.94
2022-11-25T22:25:01.728Z,5.91
2022-11-25T22:27:36.225Z,5.93
2022-11-25T22:30:05.845Z,5.91
2022-11-25T22:32:36.404Z,5.91
2022-11-25T22:35:14.698Z,5.91
2022-11-25T22:37:43.187Z,5.89
2022-11-25T22:40:14.417Z,5.87
2022-11-25T22:42:47.635Z,5.90
2022-11-25T22:45:27.627Z,5.87
2022-11-25T22:47:56.059Z,5.86
2022-11-25T22:50:29.758Z,5.89
2022-11-25T22:52:58.588Z,5.93
2022-11-25T22:55:32.314Z,5.84
2022-11-25T22:58:04.562Z,5.83
2022-11-25T23:00:35.705Z,5.83
2022-11-25T23:03:06.567Z,5.80
2022-11-25T23:05:40.781Z,5.81
2022-11-25T23:08:18.697Z,5.84
2022-11-25T23:10:47.561Z,5.81
2022-11-25T23:13:18.514Z,5.81
2022-11-25T23:16:01.461Z,5.78
2022-11-25T23:18:42.893Z,5.73
2022-11-25T23:21:25.554Z,5.70
2022-11-25T23:23:53.443Z,5.70
2022-11-25T23:26:21.845Z,5.64
2022-11-25T23:28:50.054Z,5.63
2022-11-25T23:31:18.373Z,5.63
2022-11-25T23:33:50.057Z,5.63
2022-11-25T23:36:19.724Z,5.67
2022-11-25T23:39:00.902Z,5.60
2022-11-25T23:41:31.228Z,5.60
2022-11-25T23:44:27.095Z,5.59
2022-11-25T23:46:57.284Z,5.59
2022-11-25T23:49:33.563Z,5.55
2022-11-25T23:52:07.538Z,5.53
2022-11-25T23:54:42.484Z,5.49
2022-11-25T23:57:15.269Z,5.47
2022-11-25T23:59:44.218Z,5.43
